sensor_id;sensor_type;location;lat;lon;timestamp;P1;durP1;ratioP1;P2;durP2;ratioP2
20363;SDS011;10340;53.664;9.908;2022-12-01T00:02:24;50.07;;;31.03;;
20363;SDS011;10340;53.664;9.908;2022-12-01T00:04:53;48.93;;;31.07;;
20363;SDS011;10340;53.664;9.908;2022-12-01T00:07:20;52.23;;;32.10;;
20363;SDS011;10340;53.664;9.908;2022-12-01T00:09:47;47.57;;;29.77;;
20363;SDS011;10340;53.664;9.908;2022-12-01T00:12:33;52.20;;;32.17;;
20363;SDS011;10340;53.664;9.908;2022-12-01T00:15:00;49.37;;;30.67;;
20363;SDS011;10340;53.664;9.908;2022-12-01T00:17:27;51.63;;;32.07;;
20363;SDS011;10340;53.664;9.908;2022-12-01T00:19:55;52.10;;;31.67;;
20363;SDS011;10340;53.664;9.908;2022-12-01T00:22:22;52.03;;;31.17;;
20363;SDS011;10340;53.664;9.908;2022-12-01T00:24:49;49.93;;;30.87;;
20363;SDS011;10340;53.664;9.908;2022-12-01T00:27:16;50.73;;;31.87;;
20363;SDS011;10340;53.664;9.908;2022-12-01T00:29:45;52.47;;;31.83;;
20363;SDS011;10340;53.664;9.908;2022-12-01T00:32:12;47.53;;;29.73;;
20363;SDS011;10340;53.664;9.908;2022-12-01T00:34:39;53.00;;;31.57;;
20363;SDS011;10340;53.664;9.908;2022-12-01T00:37:06;52.20;;;29.50;;
20363;SDS011;10340;53.664;9.908;2022-12-01T00:39:33;49.67;;;31.43;;
20363;SDS011;10340;53.664;9.908;2022-12-01T00:42:00;52.03;;;32.07;;
20363;SDS011;10340;53.664;9.908;2022-12-01T00:44:27;49.90;;;32.67;;
20363;SDS011;10340;53.664;9.908;2022-12-01T00:46:55;51.40;;;32.57;;
20363;SDS011;10340;53.664;9.908;2022-12-01T00:49:22;50.93;;;31.07;;
20363;SDS011;10340;53.664;9.908;2022-12-01T00:51:49;51.43;;;31.53;;
20363;SDS011;10340;53.664;9.908;2022-12-01T00:54:16;49.13;;;30.73;;
20363;SDS011;10340;53.664;9.908;2022-12-01T00:56:43;49.13;;;31.93;;
20363;SDS011;10340;53.664;9.908;2022-12-01T00:59:10;50.90;;;30.70;;
20363;SDS011;10340;53.664;9.908;2022-12-01T01:01:37;55.03;;;31.33;;
20363;SDS011;10340;53.664;9.908;2022-12-01T01:04:09;52.47;;;32.60;;
20363;SDS011;10340;53.664;9.908;2022-12-01T01:06:36;49.47;;;30.97;;
20363;SDS011;10340;53.664;9.908;2022-12-01T01:09:03;50.73;;;32.03;;
20363;SDS011;10340;53.664;9.908;2022-12-01T01:11:30;49.57;;;31.03;;
20363;SDS011;10340;53.664;9.908;2022-12-01T01:13:57;49.30;;;31.53;;
20363;SDS011;10340;53.664;9.908;2022-12-01T01:16:25;48.77;;;30.37;;
20363;SDS011;10340;53.664;9.908;2022-12-01T01:18:52;48.53;;;30.37;;
20363;SDS011;10340;53.664;9.908;2022-12-01T01:21:21;46.60;;;30.30;;
20363;SDS011;10340;53.664;9.908;2022-12-01T01:23:48;54.00;;;31.00;;
20363;SDS011;10340;53.664;9.908;2022-12-01T01:26:16;51.43;;;31.13;;
20363;SDS011;10340;53.664;9.908;2022-12-01T01:28:45;48.50;;;30.60;;
20363;SDS011;10340;53.664;9.908;2022-12-01T01:31:13;51.67;;;32.37;;
20363;SDS011;10340;53.664;9.908;2022-12-01T01:33:42;52.73;;;32.37;;
20363;SDS011;10340;53.664;9.908;2022-12-01T01:36:10;51.73;;;31.53;;
20363;SDS011;10340;53.664;9.908;2022-12-01T01:38:39;55.00;;;33.60;;
20363;SDS011;10340;53.664;9.908;2022-12-01T01:41:06;53.10;;;31.13;;
20363;SDS011;10340;53.664;9.908;2022-12-01T01:43:40;48.13;;;30.17;;
20363;SDS011;10340;53.664;9.908;2022-12-01T01:46:09;47.03;;;30.20;;
20363;SDS011;10340;53.664;9.908;2022-12-01T01:48:37;51.93;;;32.03;;
20363;SDS011;10340;53.664;9.908;2022-12-01T01:51:07;46.10;;;30.20;;
20363;SDS011;10340;53.664;9.908;2022-12-01T01:53:35;45.23;;;29.30;;
20363;SDS011;10340;53.664;9.908;2022-12-01T01:56:05;50.17;;;30.53;;
20363;SDS011;10340;53.664;9.908;2022-12-01T01:58:33;49.80;;;31.90;;
20363;SDS011;10340;53.664;9.908;2022-12-01T02:01:03;52.60;;;31.90;;
20363;SDS011;10340;53.664;9.908;2022-12-01T02:03:31;47.10;;;31.37;;
20363;SDS011;10340;53.664;9.908;2022-12-01T02:06:00;46.57;;;29.97;;
20363;SDS011;10340;53.664;9.908;2022-12-01T02:08:27;50.57;;;31.07;;
20363;SDS011;10340;53.664;9.908;2022-12-01T02:11:01;48.53;;;30.67;;
20363;SDS011;10340;53.664;9.908;2022-12-01T02:13:39;51.70;;;31.70;;
20363;SDS011;10340;53.664;9.908;2022-12-01T02:16:16;47.63;;;30.80;;
20363;SDS011;10340;53.664;9.908;2022-12-01T02:18:52;50.27;;;30.80;;
20363;SDS011;10340;53.664;9.908;2022-12-01T02:21:28;47.27;;;31.80;;
20363;SDS011;10340;53.664;9.908;2022-12-01T02:27:13;51.70;;;30.13;;
20363;SDS011;10340;53.664;9.908;2022-12-01T02:29:57;57.27;;;33.23;;
20363;SDS011;10340;53.664;9.908;2022-12-01T02:32:34;51.23;;;30.80;;
20363;SDS011;10340;53.664;9.908;2022-12-01T02:35:13;50.53;;;30.53;;
20363;SDS011;10340;53.664;9.908;2022-12-01T02:37:48;54.77;;;33.63;;
20363;SDS011;10340;53.664;9.908;2022-12-01T02:40:25;54.73;;;31.40;;
20363;SDS011;10340;53.664;9.908;2022-12-01T02:42:58;50.50;;;31.57;;
20363;SDS011;10340;53.664;9.908;2022-12-01T02:45:33;53.30;;;32.33;;
20363;SDS011;10340;53.664;9.908;2022-12-01T02:48:08;53.70;;;32.97;;
20363;SDS011;10340;53.664;9.908;2022-12-01T02:50:38;53.77;;;32.20;;
20363;SDS011;10340;53.664;9.908;2022-12-01T02:53:09;54.67;;;31.87;;
20363;SDS011;10340;53.664;9.908;2022-12-01T02:55:44;54.83;;;32.93;;
20363;SDS011;10340;53.664;9.908;2022-12-01T02:58:13;51.87;;;33.13;;
20363;SDS011;10340;53.664;9.908;2022-12-01T03:00:41;53.00;;;33.93;;
20363;SDS011;10340;53.664;9.908;2022-12-01T03:03:26;51.30;;;30.80;;
20363;SDS011;10340;53.664;9.908;2022-12-01T03:06:01;51.33;;;31.30;;
20363;SDS011;10340;53.664;9.908;2022-12-01T03:08:41;54.37;;;31.97;;
20363;SDS011;10340;53.664;9.908;2022-12-01T03:11:17;57.33;;;34.63;;
20363;SDS011;10340;53.664;9.908;2022-12-01T03:13:54;56.00;;;34.53;;
20363;SDS011;10340;53.664;9.908;2022-12-01T03:16:32;60.63;;;33.50;;
20363;SDS011;10340;53.664;9.908;2022-12-01T03:19:07;53.40;;;32.37;;
20363;SDS011;10340;53.664;9.908;2022-12-01T03:21:40;50.33;;;31.97;;
20363;SDS011;10340;53.664;9.908;2022-12-01T03:24:13;53.27;;;31.97;;
20363;SDS011;10340;53.664;9.908;2022-12-01T03:26:44;49.30;;;30.40;;
20363;SDS011;10340;53.664;9.908;2022-12-01T03:29:14;55.97;;;33.23;;
20363;SDS011;10340;53.664;9.908;2022-12-01T03:31:43;56.47;;;34.17;;
20363;SDS011;10340;53.664;9.908;2022-12-01T03:34:15;58.83;;;34.43;;
20363;SDS011;10340;53.664;9.908;2022-12-01T03:36:48;55.83;;;33.23;;
20363;SDS011;10340;53.664;9.908;2022-12-01T03:39:20;56.73;;;32.73;;
20363;SDS011;10340;53.664;9.908;2022-12-01T03:41:52;56.90;;;34.97;;
20363;SDS011;10340;53.664;9.908;2022-12-01T03:44:25;52.17;;;30.37;;
20363;SDS011;10340;53.664;9.908;2022-12-01T03:46:58;55.53;;;33.50;;
20363;SDS011;10340;53.664;9.908;2022-12-01T03:49:30;53.60;;;31.17;;
20363;SDS011;10340;53.664;9.908;2022-12-01T03:52:01;63.43;;;34.43;;
20363;SDS011;10340;53.664;9.908;2022-12-01T03:54:37;57.20;;;32.53;;
20363;SDS011;10340;53.664;9.908;2022-12-01T03:57:12;57.10;;;32.77;;
20363;SDS011;10340;53.664;9.908;2022-12-01T03:59:43;56.87;;;33.23;;
20363;SDS011;10340;53.664;9.908;2022-12-01T04:02:11;53.17;;;31.73;;
20363;SDS011;10340;53.664;9.908;2022-12-01T04:04:39;55.63;;;32.37;;
20363;SDS011;10340;53.664;9.908;2022-12-01T04:07:06;61.87;;;34.57;;
20363;SDS011;10340;53.664;9.908;2022-12-01T04:09:37;58.20;;;33.40;;
20363;SDS011;10340;53.664;9.908;2022-12-01T04:12:05;57.70;;;33.47;;
20363;SDS011;10340;53.664;9.908;2022-12-01T04:14:50;58.97;;;32.70;;
20363;SDS011;10340;53.664;9.908;2022-12-01T04:17:17;59.57;;;33.80;;
20363;SDS011;10340;53.664;9.908;2022-12-01T04:19:45;53.23;;;31.07;;
20363;SDS011;10340;53.664;9.908;2022-12-01T04:22:12;51.07;;;31.13;;
20363;SDS011;10340;53.664;9.908;2022-12-01T04:24:39;58.73;;;32.23;;
20363;SDS011;10340;53.664;9.908;2022-12-01T04:27:06;59.67;;;33.77;;
20363;SDS011;10340;53.664;9.908;2022-12-01T04:29:34;55.23;;;31.33;;
20363;SDS011;10340;53.664;9.908;2022-12-01T04:32:00;58.07;;;32.13;;
20363;SDS011;10340;53.664;9.908;2022-12-01T04:34:27;56.70;;;31.83;;
20363;SDS011;10340;53.664;9.908;2022-12-01T04:36:56;49.33;;;30.27;;
20363;SDS011;10340;53.664;9.908;2022-12-01T04:39:23;57.40;;;33.03;;
20363;SDS011;10340;53.664;9.908;2022-12-01T04:41:50;52.57;;;33.47;;
20363;SDS011;10340;53.664;9.908;2022-12-01T04:44:17;56.70;;;33.07;;
20363;SDS011;10340;53.664;9.908;2022-12-01T04:46:45;54.63;;;31.30;;
20363;SDS011;10340;53.664;9.908;2022-12-01T04:49:12;52.47;;;31.93;;
20363;SDS011;10340;53.664;9.908;2022-12-01T04:51:39;55.53;;;32.50;;
20363;SDS011;10340;53.664;9.908;2022-12-01T04:54:08;55.73;;;32.93;;
20363;SDS011;10340;53.664;9.908;2022-12-01T04:56:35;59.10;;;34.17;;
20363;SDS011;10340;53.664;9.908;2022-12-01T04:59:02;56.50;;;32.00;;
20363;SDS011;10340;53.664;9.908;2022-12-01T05:01:29;56.67;;;31.27;;
20363;SDS011;10340;53.664;9.908;2022-12-01T05:03:56;59.13;;;32.77;;
20363;SDS011;10340;53.664;9.908;2022-12-01T05:06:23;57.07;;;32.10;;
20363;SDS011;10340;53.664;9.908;2022-12-01T05:08:53;51.70;;;30.27;;
20363;SDS011;10340;53.664;9.908;2022-12-01T05:11:22;56.07;;;30.83;;
20363;SDS011;10340;53.664;9.908;2022-12-01T05:13:50;55.13;;;31.50;;
20363;SDS011;10340;53.664;9.908;2022-12-01T05:16:18;57.87;;;32.23;;
20363;SDS011;10340;53.664;9.908;2022-12-01T05:18:46;54.40;;;31.83;;
20363;SDS011;10340;53.664;9.908;2022-12-01T05:21:14;57.60;;;31.30;;
20363;SDS011;10340;53.664;9.908;2022-12-01T05:23:41;56.53;;;31.20;;
20363;SDS011;10340;53.664;9.908;2022-12-01T05:26:09;58.17;;;33.07;;
20363;SDS011;10340;53.664;9.908;2022-12-01T05:28:38;56.03;;;33.23;;
20363;SDS011;10340;53.664;9.908;2022-12-01T05:31:05;54.37;;;32.90;;
20363;SDS011;10340;53.664;9.908;2022-12-01T05:33:32;62.50;;;33.73;;
20363;SDS011;10340;53.664;9.908;2022-12-01T05:35:59;59.20;;;33.80;;
20363;SDS011;10340;53.664;9.908;2022-12-01T05:38:26;56.77;;;32.50;;
20363;SDS011;10340;53.664;9.908;2022-12-01T05:40:54;63.60;;;33.30;;
20363;SDS011;10340;53.664;9.908;2022-12-01T05:43:21;58.30;;;32.50;;
20363;SDS011;10340;53.664;9.908;2022-12-01T05:45:50;56.00;;;31.40;;
20363;SDS011;10340;53.664;9.908;2022-12-01T05:48:17;60.97;;;31.67;;
20363;SDS011;10340;53.664;9.908;2022-12-01T05:50:44;59.27;;;31.70;;
20363;SDS011;10340;53.664;9.908;2022-12-01T05:53:11;58.80;;;32.30;;
20363;SDS011;10340;53.664;9.908;2022-12-01T05:55:39;60.00;;;34.03;;
20363;SDS011;10340;53.664;9.908;2022-12-01T05:58:07;60.57;;;34.40;;
20363;SDS011;10340;53.664;9.908;2022-12-01T06:00:34;61.13;;;32.47;;
20363;SDS011;10340;53.664;9.908;2022-12-01T06:03:03;60.07;;;32.17;;
20363;SDS011;10340;53.664;9.908;2022-12-01T06:05:31;62.50;;;34.13;;
20363;SDS011;10340;53.664;9.908;2022-12-01T06:07:57;51.83;;;30.10;;
20363;SDS011;10340;53.664;9.908;2022-12-01T06:10:24;64.93;;;35.10;;
20363;SDS011;10340;53.664;9.908;2022-12-01T06:12:51;65.27;;;34.93;;
20363;SDS011;10340;53.664;9.908;2022-12-01T06:15:18;62.50;;;33.87;;
20363;SDS011;10340;53.664;9.908;2022-12-01T06:17:45;65.87;;;35.50;;
20363;SDS011;10340;53.664;9.908;2022-12-01T06:20:14;60.10;;;33.47;;
20363;SDS011;10340;53.664;9.908;2022-12-01T06:22:41;64.13;;;33.90;;
20363;SDS011;10340;53.664;9.908;2022-12-01T06:25:08;62.00;;;34.00;;
20363;SDS011;10340;53.664;9.908;2022-12-01T06:27:35;57.37;;;31.50;;
20363;SDS011;10340;53.664;9.908;2022-12-01T06:30:02;57.13;;;32.27;;
20363;SDS011;10340;53.664;9.908;2022-12-01T06:32:30;59.23;;;32.20;;
20363;SDS011;10340;53.664;9.908;2022-12-01T06:34:57;63.40;;;33.33;;
20363;SDS011;10340;53.664;9.908;2022-12-01T06:37:26;61.67;;;32.77;;
20363;SDS011;10340;53.664;9.908;2022-12-01T06:39:53;60.37;;;33.87;;
20363;SDS011;10340;53.664;9.908;2022-12-01T06:42:20;60.93;;;32.83;;
20363;SDS011;10340;53.664;9.908;2022-12-01T06:44:47;63.07;;;34.63;;
20363;SDS011;10340;53.664;9.908;2022-12-01T06:47:14;64.33;;;34.47;;
20363;SDS011;10340;53.664;9.908;2022-12-01T06:49:41;61.00;;;35.00;;
20363;SDS011;10340;53.664;9.908;2022-12-01T06:52:08;64.33;;;34.17;;
20363;SDS011;10340;53.664;9.908;2022-12-01T06:54:37;62.10;;;33.17;;
20363;SDS011;10340;53.664;9.908;2022-12-01T06:57:04;64.53;;;34.90;;
20363;SDS011;10340;53.664;9.908;2022-12-01T06:59:31;60.37;;;33.33;;
20363;SDS011;10340;53.664;9.908;2022-12-01T07:01:58;59.07;;;33.57;;
20363;SDS011;10340;53.664;9.908;2022-12-01T07:04:25;67.63;;;34.77;;
20363;SDS011;10340;53.664;9.908;2022-12-01T07:06:52;67.90;;;34.43;;
20363;SDS011;10340;53.664;9.908;2022-12-01T07:09:19;62.87;;;34.73;;
20363;SDS011;10340;53.664;9.908;2022-12-01T07:11:47;59.63;;;34.70;;
20363;SDS011;10340;53.664;9.908;2022-12-01T07:14:15;61.67;;;32.97;;
20363;SDS011;10340;53.664;9.908;2022-12-01T07:16:47;62.40;;;33.03;;
20363;SDS011;10340;53.664;9.908;2022-12-01T07:19:14;62.23;;;32.57;;
20363;SDS011;10340;53.664;9.908;2022-12-01T07:21:41;65.70;;;33.27;;
20363;SDS011;10340;53.664;9.908;2022-12-01T07:24:08;64.33;;;34.73;;
20363;SDS011;10340;53.664;9.908;2022-12-01T07:26:36;69.20;;;37.17;;
20363;SDS011;10340;53.664;9.908;2022-12-01T07:29:05;61.10;;;33.77;;
20363;SDS011;10340;53.664;9.908;2022-12-01T07:31:32;63.13;;;32.77;;
20363;SDS011;10340;53.664;9.908;2022-12-01T07:33:59;60.67;;;34.67;;
20363;SDS011;10340;53.664;9.908;2022-12-01T07:36:27;64.13;;;33.27;;
20363;SDS011;10340;53.664;9.908;2022-12-01T07:38:53;64.27;;;33.63;;
20363;SDS011;10340;53.664;9.908;2022-12-01T07:41:20;60.80;;;33.40;;
20363;SDS011;10340;53.664;9.908;2022-12-01T07:43:48;68.60;;;33.57;;
20363;SDS011;10340;53.664;9.908;2022-12-01T07:46:17;67.03;;;34.57;;
20363;SDS011;10340;53.664;9.908;2022-12-01T07:48:45;67.80;;;34.13;;
20363;SDS011;10340;53.664;9.908;2022-12-01T07:51:14;65.50;;;31.23;;
20363;SDS011;10340;53.664;9.908;2022-12-01T07:53:41;67.67;;;33.13;;
20363;SDS011;10340;53.664;9.908;2022-12-01T07:56:09;66.17;;;34.17;;
20363;SDS011;10340;53.664;9.908;2022-12-01T07:58:36;62.83;;;33.50;;
20363;SDS011;10340;53.664;9.908;2022-12-01T08:01:06;59.43;;;31.17;;
20363;SDS011;10340;53.664;9.908;2022-12-01T08:03:37;62.90;;;32.07;;
20363;SDS011;10340;53.664;9.908;2022-12-01T08:06:05;63.67;;;33.13;;
20363;SDS011;10340;53.664;9.908;2022-12-01T08:08:33;62.77;;;32.13;;
20363;SDS011;10340;53.664;9.908;2022-12-01T08:11:01;63.00;;;32.13;;
20363;SDS011;10340;53.664;9.908;2022-12-01T08:13:30;58.73;;;32.20;;
20363;SDS011;10340;53.664;9.908;2022-12-01T08:15:57;56.77;;;31.90;;
20363;SDS011;10340;53.664;9.908;2022-12-01T08:18:27;58.77;;;31.10;;
20363;SDS011;10340;53.664;9.908;2022-12-01T08:20:56;58.13;;;32.10;;
20363;SDS011;10340;53.664;9.908;2022-12-01T08:23:23;57.53;;;32.17;;
20363;SDS011;10340;53.664;9.908;2022-12-01T08:25:50;57.80;;;30.87;;
20363;SDS011;10340;53.664;9.908;2022-12-01T08:28:18;61.07;;;31.83;;
20363;SDS011;10340;53.664;9.908;2022-12-01T08:30:45;63.17;;;32.27;;
20363;SDS011;10340;53.664;9.908;2022-12-01T08:33:12;60.97;;;32.10;;
20363;SDS011;10340;53.664;9.908;2022-12-01T08:35:39;58.60;;;32.27;;
20363;SDS011;10340;53.664;9.908;2022-12-01T08:38:08;59.13;;;31.80;;
20363;SDS011;10340;53.664;9.908;2022-12-01T08:40:36;61.70;;;32.80;;
20363;SDS011;10340;53.664;9.908;2022-12-01T08:43:03;55.40;;;31.17;;
20363;SDS011;10340;53.664;9.908;2022-12-01T08:45:30;56.23;;;29.83;;
20363;SDS011;10340;53.664;9.908;2022-12-01T08:47:57;55.63;;;31.20;;
20363;SDS011;10340;53.664;9.908;2022-12-01T08:50:25;55.50;;;30.77;;
20363;SDS011;10340;53.664;9.908;2022-12-01T08:52:52;55.93;;;30.37;;
20363;SDS011;10340;53.664;9.908;2022-12-01T08:55:21;57.80;;;30.83;;
20363;SDS011;10340;53.664;9.908;2022-12-01T08:57:48;59.27;;;29.87;;
20363;SDS011;10340;53.664;9.908;2022-12-01T09:00:15;57.33;;;31.43;;
20363;SDS011;10340;53.664;9.908;2022-12-01T09:02:42;57.13;;;31.43;;
20363;SDS011;10340;53.664;9.908;2022-12-01T09:05:09;58.40;;;31.40;;
20363;SDS011;10340;53.664;9.908;2022-12-01T09:07:36;56.60;;;31.03;;
20363;SDS011;10340;53.664;9.908;2022-12-01T09:10:05;52.23;;;29.23;;
20363;SDS011;10340;53.664;9.908;2022-12-01T09:12:34;60.27;;;31.77;;
20363;SDS011;10340;53.664;9.908;2022-12-01T09:15:01;53.27;;;29.27;;
20363;SDS011;10340;53.664;9.908;2022-12-01T09:17:29;51.13;;;28.70;;
20363;SDS011;10340;53.664;9.908;2022-12-01T09:19:56;51.13;;;27.83;;
20363;SDS011;10340;53.664;9.908;2022-12-01T09:22:23;47.97;;;27.00;;
20363;SDS011;10340;53.664;9.908;2022-12-01T09:24:50;51.43;;;27.63;;
20363;SDS011;10340;53.664;9.908;2022-12-01T09:27:16;47.77;;;26.70;;
20363;SDS011;10340;53.664;9.908;2022-12-01T09:29:45;46.73;;;27.00;;
20363;SDS011;10340;53.664;9.908;2022-12-01T09:32:12;48.07;;;27.50;;
20363;SDS011;10340;53.664;9.908;2022-12-01T09:34:39;45.23;;;26.93;;
20363;SDS011;10340;53.664;9.908;2022-12-01T09:37:06;50.73;;;28.10;;
20363;SDS011;10340;53.664;9.908;2022-12-01T09:39:33;50.90;;;26.83;;
20363;SDS011;10340;53.664;9.908;2022-12-01T09:42:01;48.17;;;26.10;;
20363;SDS011;10340;53.664;9.908;2022-12-01T09:44:34;50.77;;;26.03;;
20363;SDS011;10340;53.664;9.908;2022-12-01T09:47:08;48.23;;;26.63;;
20363;SDS011;10340;53.664;9.908;2022-12-01T09:49:43;48.10;;;26.43;;
20363;SDS011;10340;53.664;9.908;2022-12-01T09:52:16;46.10;;;25.67;;
20363;SDS011;10340;53.664;9.908;2022-12-01T09:54:44;48.43;;;26.50;;
20363;SDS011;10340;53.664;9.908;2022-12-01T09:57:14;42.67;;;25.93;;
20363;SDS011;10340;53.664;9.908;2022-12-01T09:59:43;45.77;;;25.57;;
20363;SDS011;10340;53.664;9.908;2022-12-01T10:05:04;46.57;;;25.47;;
20363;SDS011;10340;53.664;9.908;2022-12-01T10:07:37;43.93;;;24.87;;
20363;SDS011;10340;53.664;9.908;2022-12-01T10:10:10;45.70;;;26.17;;
20363;SDS011;10340;53.664;9.908;2022-12-01T10:12:40;42.93;;;25.57;;
20363;SDS011;10340;53.664;9.908;2022-12-01T10:15:12;41.80;;;23.50;;
20363;SDS011;10340;53.664;9.908;2022-12-01T10:17:47;43.07;;;25.70;;
20363;SDS011;10340;53.664;9.908;2022-12-01T10:20:24;45.80;;;24.73;;
20363;SDS011;10340;53.664;9.908;2022-12-01T10:23:04;45.00;;;25.20;;
20363;SDS011;10340;53.664;9.908;2022-12-01T10:25:45;43.47;;;23.73;;
20363;SDS011;10340;53.664;9.908;2022-12-01T10:28:34;40.57;;;22.63;;
20363;SDS011;10340;53.664;9.908;2022-12-01T10:31:12;40.37;;;22.80;;
20363;SDS011;10340;53.664;9.908;2022-12-01T10:33:58;43.13;;;22.23;;
20363;SDS011;10340;53.664;9.908;2022-12-01T10:36:26;39.90;;;21.97;;
20363;SDS011;10340;53.664;9.908;2022-12-01T10:38:55;44.07;;;22.27;;
20363;SDS011;10340;53.664;9.908;2022-12-01T10:41:23;39.17;;;21.27;;
20363;SDS011;10340;53.664;9.908;2022-12-01T10:43:55;37.67;;;21.57;;
20363;SDS011;10340;53.664;9.908;2022-12-01T10:46:26;36.73;;;20.97;;
20363;SDS011;10340;53.664;9.908;2022-12-01T10:48:59;35.47;;;20.80;;
20363;SDS011;10340;53.664;9.908;2022-12-01T10:51:44;42.80;;;20.27;;
20363;SDS011;10340;53.664;9.908;2022-12-01T10:54:14;36.23;;;20.43;;
20363;SDS011;10340;53.664;9.908;2022-12-01T10:56:42;38.93;;;20.17;;
20363;SDS011;10340;53.664;9.908;2022-12-01T10:59:22;34.30;;;20.10;;
20363;SDS011;10340;53.664;9.908;2022-12-01T11:01:56;38.10;;;20.10;;
20363;SDS011;10340;53.664;9.908;2022-12-01T11:04:29;40.87;;;19.93;;
20363;SDS011;10340;53.664;9.908;2022-12-01T11:07:07;34.10;;;19.57;;
20363;SDS011;10340;53.664;9.908;2022-12-01T11:09:41;39.30;;;19.37;;
20363;SDS011;10340;53.664;9.908;2022-12-01T11:12:12;36.57;;;19.37;;
20363;SDS011;10340;53.664;9.908;2022-12-01T11:14:45;36.27;;;19.17;;
20363;SDS011;10340;53.664;9.908;2022-12-01T11:17:16;39.40;;;19.23;;
20363;SDS011;10340;53.664;9.908;2022-12-01T11:19:56;36.70;;;18.57;;
20363;SDS011;10340;53.664;9.908;2022-12-01T11:22:24;39.23;;;19.00;;
20363;SDS011;10340;53.664;9.908;2022-12-01T11:24:56;39.93;;;20.50;;
20363;SDS011;10340;53.664;9.908;2022-12-01T11:27:25;38.97;;;19.23;;
20363;SDS011;10340;53.664;9.908;2022-12-01T11:29:56;42.77;;;20.50;;
20363;SDS011;10340;53.664;9.908;2022-12-01T11:32:28;37.67;;;18.40;;
20363;SDS011;10340;53.664;9.908;2022-12-01T11:34:58;37.53;;;19.30;;
20363;SDS011;10340;53.664;9.908;2022-12-01T11:37:29;39.43;;;18.47;;
20363;SDS011;10340;53.664;9.908;2022-12-01T11:40:06;36.47;;;18.17;;
20363;SDS011;10340;53.664;9.908;2022-12-01T11:42:39;31.70;;;17.33;;
20363;SDS011;10340;53.664;9.908;2022-12-01T11:45:22;34.47;;;18.00;;
20363;SDS011;10340;53.664;9.908;2022-12-01T11:47:57;35.43;;;16.63;;
20363;SDS011;10340;53.664;9.908;2022-12-01T11:50:28;30.57;;;15.77;;
20363;SDS011;10340;53.664;9.908;2022-12-01T11:52:56;33.80;;;15.67;;
20363;SDS011;10340;53.664;9.908;2022-12-01T11:55:24;27.93;;;15.47;;
20363;SDS011;10340;53.664;9.908;2022-12-01T11:57:53;34.07;;;17.40;;
20363;SDS011;10340;53.664;9.908;2022-12-01T12:00:23;28.93;;;15.47;;
20363;SDS011;10340;53.664;9.908;2022-12-01T12:02:56;30.57;;;15.77;;
20363;SDS011;10340;53.664;9.908;2022-12-01T12:05:43;22.33;;;13.40;;
20363;SDS011;10340;53.664;9.908;2022-12-01T12:08:38;23.83;;;13.90;;
20363;SDS011;10340;53.664;9.908;2022-12-01T12:11:16;24.47;;;12.60;;
20363;SDS011;10340;53.664;9.908;2022-12-01T12:13:58;24.40;;;14.53;;
20363;SDS011;10340;53.664;9.908;2022-12-01T12:16:37;26.97;;;13.43;;
20363;SDS011;10340;53.664;9.908;2022-12-01T12:19:20;26.57;;;14.23;;
20363;SDS011;10340;53.664;9.908;2022-12-01T12:22:13;26.70;;;14.13;;
20363;SDS011;10340;53.664;9.908;2022-12-01T12:24:51;27.57;;;14.47;;
20363;SDS011;10340;53.664;9.908;2022-12-01T12:27:28;26.87;;;14.43;;
20363;SDS011;10340;53.664;9.908;2022-12-01T12:36:02;22.33;;;12.63;;
20363;SDS011;10340;53.664;9.908;2022-12-01T12:38:49;19.40;;;11.53;;
20363;SDS011;10340;53.664;9.908;2022-12-01T12:41:25;19.33;;;12.43;;
20363;SDS011;10340;53.664;9.908;2022-12-01T12:47:09;24.40;;;13.30;;
20363;SDS011;10340;53.664;9.908;2022-12-01T12:50:02;23.03;;;13.27;;
20363;SDS011;10340;53.664;9.908;2022-12-01T12:52:40;20.67;;;13.30;;
20363;SDS011;10340;53.664;9.908;2022-12-01T12:55:13;23.73;;;14.10;;
20363;SDS011;10340;53.664;9.908;2022-12-01T12:57:54;26.40;;;13.40;;
20363;SDS011;10340;53.664;9.908;2022-12-01T13:00:24;27.23;;;14.33;;
20363;SDS011;10340;53.664;9.908;2022-12-01T13:02:53;27.60;;;14.13;;
20363;SDS011;10340;53.664;9.908;2022-12-01T13:05:23;26.83;;;14.67;;
20363;SDS011;10340;53.664;9.908;2022-12-01T13:07:55;25.23;;;14.40;;
20363;SDS011;10340;53.664;9.908;2022-12-01T13:10:27;27.97;;;14.57;;
20363;SDS011;10340;53.664;9.908;2022-12-01T13:13:00;26.83;;;14.30;;
20363;SDS011;10340;53.664;9.908;2022-12-01T13:15:35;25.30;;;13.53;;
20363;SDS011;10340;53.664;9.908;2022-12-01T13:18:08;32.10;;;15.17;;
20363;SDS011;10340;53.664;9.908;2022-12-01T13:20:42;30.13;;;14.57;;
20363;SDS011;10340;53.664;9.908;2022-12-01T13:23:11;30.20;;;14.93;;
20363;SDS011;10340;53.664;9.908;2022-12-01T13:25:44;27.23;;;14.10;;
20363;SDS011;10340;53.664;9.908;2022-12-01T13:28:16;28.73;;;15.03;;
20363;SDS011;10340;53.664;9.908;2022-12-01T13:30:56;29.67;;;15.43;;
20363;SDS011;10340;53.664;9.908;2022-12-01T13:33:25;32.23;;;14.73;;
20363;SDS011;10340;53.664;9.908;2022-12-01T13:35:53;26.73;;;14.43;;
20363;SDS011;10340;53.664;9.908;2022-12-01T13:38:21;32.73;;;14.83;;
20363;SDS011;10340;53.664;9.908;2022-12-01T13:43:58;30.13;;;15.33;;
20363;SDS011;10340;53.664;9.908;2022-12-01T13:46:29;30.57;;;14.10;;
20363;SDS011;10340;53.664;9.908;2022-12-01T13:48:58;26.03;;;14.10;;
20363;SDS011;10340;53.664;9.908;2022-12-01T13:51:25;27.50;;;13.53;;
20363;SDS011;10340;53.664;9.908;2022-12-01T13:53:56;30.30;;;15.23;;
20363;SDS011;10340;53.664;9.908;2022-12-01T13:56:37;25.63;;;14.33;;
20363;SDS011;10340;53.664;9.908;2022-12-01T14:02:13;26.90;;;12.50;;
20363;SDS011;10340;53.664;9.908;2022-12-01T14:04:42;28.83;;;14.53;;
20363;SDS011;10340;53.664;9.908;2022-12-01T14:12:59;28.70;;;13.20;;
20363;SDS011;10340;53.664;9.908;2022-12-01T14:15:32;29.00;;;14.13;;
20363;SDS011;10340;53.664;9.908;2022-12-01T14:18:18;29.43;;;14.27;;
20363;SDS011;10340;53.664;9.908;2022-12-01T14:20:52;29.20;;;14.10;;
20363;SDS011;10340;53.664;9.908;2022-12-01T14:23:22;25.23;;;12.63;;
20363;SDS011;10340;53.664;9.908;2022-12-01T14:26:12;23.70;;;12.90;;
20363;SDS011;10340;53.664;9.908;2022-12-01T14:32:02;26.00;;;12.63;;
20363;SDS011;10340;53.664;9.908;2022-12-01T14:35:09;24.43;;;12.30;;
20363;SDS011;10340;53.664;9.908;2022-12-01T14:37:47;23.23;;;12.40;;
20363;SDS011;10340;53.664;9.908;2022-12-01T14:40:22;24.10;;;12.33;;
20363;SDS011;10340;53.664;9.908;2022-12-01T14:42:54;24.43;;;12.63;;
20363;SDS011;10340;53.664;9.908;2022-12-01T14:45:45;22.20;;;11.93;;
20363;SDS011;10340;53.664;9.908;2022-12-01T14:48:33;25.47;;;12.13;;
20363;SDS011;10340;53.664;9.908;2022-12-01T14:51:08;23.90;;;11.50;;
20363;SDS011;10340;53.664;9.908;2022-12-01T14:53:42;22.33;;;11.87;;
20363;SDS011;10340;53.664;9.908;2022-12-01T14:56:12;24.23;;;11.27;;
20363;SDS011;10340;53.664;9.908;2022-12-01T14:58:49;25.83;;;11.50;;
20363;SDS011;10340;53.664;9.908;2022-12-01T15:01:19;19.17;;;10.57;;
20363;SDS011;10340;53.664;9.908;2022-12-01T15:03:48;22.47;;;11.20;;
20363;SDS011;10340;53.664;9.908;2022-12-01T15:06:17;20.23;;;10.93;;
20363;SDS011;10340;53.664;9.908;2022-12-01T15:08:45;16.33;;;9.87;;
20363;SDS011;10340;53.664;9.908;2022-12-01T15:11:18;18.70;;;10.93;;
20363;SDS011;10340;53.664;9.908;2022-12-01T15:13:48;16.83;;;10.30;;